createdAt,value
2019-03-16T00:00:13.880Z,14.18
2019-03-16T00:02:42.654Z,13.32
2019-03-16T00:05:11.530Z,15.28
2019-03-16T00:07:40.375Z,16.35
2019-03-16T00:10:09.134Z,9.73
2019-03-16T00:12:37.957Z,13.32
2019-03-16T00:15:07.662Z,15.13
2019-03-16T00:17:36.456Z,11.83
2019-03-16T00:20:10.369Z,14.38
2019-03-16T00:22:39.441Z,12.43
2019-03-16T00:25:09.257Z,13.08
2019-03-16T00:27:38.109Z,12.25
2019-03-16T00:30:14.814Z,9.03
2019-03-16T00:32:43.613Z,16.75
2019-03-16T00:35:12.444Z,10.43
2019-03-16T00:37:41.205Z,14.38
2019-03-16T00:40:11.641Z,13.38
2019-03-16T00:42:40.406Z,11.53
2019-03-16T00:45:10.601Z,11.15
2019-03-16T00:47:39.403Z,11.53
2019-03-16T00:50:10.517Z,10.18
2019-03-16T00:52:39.285Z,11.12
2019-03-16T00:55:09.121Z,11.40
2019-03-16T00:57:37.880Z,13.50
2019-03-16T01:00:09.850Z,11.97
2019-03-16T01:02:38.646Z,10.00
2019-03-16T01:05:07.423Z,12.18
2019-03-16T01:07:36.198Z,9.50
2019-03-16T01:10:07.753Z,13.20
2019-03-16T01:12:36.617Z,14.68
2019-03-16T01:15:08.397Z,16.57
2019-03-16T01:17:37.269Z,17.52
2019-03-16T01:20:13.507Z,14.50
2019-03-16T01:22:42.299Z,15.43
2019-03-16T01:25:12.796Z,14.35
2019-03-16T01:27:41.564Z,16.20
2019-03-16T01:30:15.317Z,15.08
2019-03-16T01:32:44.147Z,16.82
2019-03-16T01:35:13.012Z,13.53
2019-03-16T01:37:41.795Z,15.35
2019-03-16T01:40:10.929Z,13.50
2019-03-16T01:42:39.689Z,14.43
2019-03-16T01:45:09.939Z,17.15
2019-03-16T01:47:38.695Z,17.82
2019-03-16T01:50:11.669Z,13.88
2019-03-16T01:52:40.908Z,11.73
2019-03-16T01:55:09.736Z,13.88
2019-03-16T01:57:38.505Z,18.42
2019-03-16T02:00:10.567Z,9.93
2019-03-16T02:02:39.329Z,14.35
2019-03-16T02:05:08.092Z,13.78
2019-03-16T02:07:36.901Z,19.82
2019-03-16T02:10:06.915Z,13.35
2019-03-16T02:12:35.669Z,9.58
2019-03-16T02:15:06.169Z,13.75
2019-03-16T02:17:34.944Z,9.95
2019-03-16T02:20:04.748Z,8.30
2019-03-16T02:22:33.532Z,11.05
2019-03-16T02:25:02.360Z,10.90
2019-03-16T02:27:31.132Z,11.40
2019-03-16T02:29:59.916Z,7.92
2019-03-16T02:32:28.731Z,10.23
2019-03-16T02:34:57.552Z,11.33
2019-03-16T02:37:26.330Z,11.15
2019-03-16T02:39:55.102Z,11.03
2019-03-16T02:42:23.863Z,12.28
2019-03-16T02:44:52.662Z,14.47
2019-03-16T02:47:21.507Z,11.88
2019-03-16T02:49:50.335Z,9.85
2019-03-16T02:52:19.129Z,10.08
2019-03-16T02:54:48.020Z,10.80
2019-03-16T02:57:16.825Z,11.35
2019-03-16T02:59:45.686Z,11.63
2019-03-16T03:02:14.793Z,10.95
2019-03-16T03:04:46.044Z,11.60
2019-03-16T03:07:14.068Z,11.65
2019-03-16T03:09:42.907Z,12.88
2019-03-16T03:12:11.756Z,8.28
2019-03-16T03:14:40.607Z,10.60
2019-03-16T03:17:09.695Z,11.73
2019-03-16T03:19:38.460Z,6.08
2019-03-16T03:22:07.295Z,10.90
2019-03-16T03:24:36.468Z,9.33
2019-03-16T03:27:05.276Z,7.65
2019-03-16T03:29:34.115Z,9.70
2019-03-16T03:32:02.986Z,7.22
2019-03-16T03:34:31.810Z,5.62
2019-03-16T03:37:00.613Z,6.85
2019-03-16T03:39:29.731Z,3.27
2019-03-16T03:41:58.921Z,4.92
2019-03-16T03:44:27.807Z,4.30
2019-03-16T03:46:56.622Z,3.50
2019-03-16T03:49:25.449Z,5.25
2019-03-16T03:51:54.278Z,8.35
2019-03-16T03:54:23.108Z,4.70
2019-03-16T03:56:51.874Z,2.87
2019-03-16T03:59:20.676Z,2.40
2019-03-16T04:01:49.848Z,3.60
2019-03-16T04:04:18.607Z,6.80
2019-03-16T04:06:47.401Z,5.25
2019-03-16T04:09:17.795Z,3.42
2019-03-16T04:11:46.560Z,3.60
2019-03-16T04:14:15.748Z,4.92
2019-03-16T04:16:44.513Z,3.42
2019-03-16T04:19:13.364Z,2.58
2019-03-16T04:21:42.153Z,3.30
2019-03-16T04:24:11.038Z,5.35
2019-03-16T04:26:39.856Z,3.58
2019-03-16T04:29:08.730Z,4.28
2019-03-16T04:31:37.529Z,3.25
2019-03-16T04:34:06.308Z,2.08
2019-03-16T04:36:35.127Z,2.15
2019-03-16T04:39:05.438Z,3.15
2019-03-16T04:41:34.290Z,2.98
2019-03-16T04:44:03.098Z,3.45
2019-03-16T04:46:31.857Z,4.00
2019-03-16T04:49:00.619Z,2.22
2019-03-16T04:51:29.747Z,5.83
2019-03-16T04:53:58.508Z,6.58
2019-03-16T04:56:28.921Z,6.05
2019-03-16T04:58:57.821Z,3.50
2019-03-16T05:01:26.604Z,3.37
2019-03-16T05:03:55.446Z,3.77
2019-03-16T05:06:24.246Z,4.45
2019-03-16T05:08:53.016Z,4.42
2019-03-16T05:11:21.802Z,4.78
2019-03-16T05:13:50.668Z,4.30
2019-03-16T05:16:19.419Z,3.52
2019-03-16T05:18:48.181Z,5.30
2019-03-16T05:21:17.380Z,4.25
2019-03-16T05:23:46.237Z,3.87
2019-03-16T05:26:15.072Z,6.78
2019-03-16T05:28:44.000Z,6.03
2019-03-16T05:31:12.841Z,4.20
2019-03-16T05:33:41.636Z,8.20
2019-03-16T05:36:10.524Z,6.42
2019-03-16T05:38:39.375Z,5.78
2019-03-16T05:41:08.226Z,6.75
2019-03-16T05:43:37.105Z,5.97
2019-03-16T05:46:06.292Z,7.00
2019-03-16T05:48:35.052Z,5.40
2019-03-16T05:51:04.181Z,5.28
2019-03-16T05:53:32.950Z,6.95
2019-03-16T05:56:01.724Z,7.62
2019-03-16T05:58:30.532Z,7.35
2019-03-16T06:00:59.298Z,6.65
2019-03-16T06:03:28.072Z,10.25
2019-03-16T06:05:57.222Z,4.50
2019-03-16T06:08:26.004Z,7.90
2019-03-16T06:10:54.758Z,5.12
2019-03-16T06:13:23.899Z,8.33
2019-03-16T06:15:52.664Z,6.72
2019-03-16T06:18:21.430Z,4.83
2019-03-16T06:20:50.247Z,6.70
2019-03-16T06:23:19.373Z,7.87
2019-03-16T06:25:48.477Z,5.95
2019-03-16T06:28:17.266Z,8.38
2019-03-16T06:30:46.028Z,5.97
2019-03-16T06:33:14.794Z,5.92
2019-03-16T06:35:43.600Z,7.90
2019-03-16T06:38:12.435Z,6.22
2019-03-16T06:40:41.189Z,9.48
2019-03-16T06:43:10.000Z,6.58
2019-03-16T06:45:38.751Z,8.48
2019-03-16T06:48:07.515Z,8.70
2019-03-16T06:50:36.327Z,8.33
2019-03-16T06:53:05.162Z,11.50
2019-03-16T06:55:33.937Z,7.72
2019-03-16T06:58:02.748Z,9.95
2019-03-16T07:00:31.525Z,6.95
2019-03-16T07:03:00.284Z,15.10
2019-03-16T07:05:38.268Z,8.98
2019-03-16T07:07:59.562Z,6.42
2019-03-16T07:10:28.312Z,13.58
2019-03-16T07:12:57.128Z,5.90
2019-03-16T07:15:25.963Z,9.23
2019-03-16T07:17:54.738Z,10.00
2019-03-16T07:20:23.530Z,8.38
2019-03-16T07:22:52.299Z,6.17
2019-03-16T07:25:21.072Z,8.00
2019-03-16T07:27:49.869Z,8.03
2019-03-16T07:30:18.644Z,4.87
2019-03-16T07:32:47.408Z,5.95
2019-03-16T07:35:16.214Z,4.70
2019-03-16T07:37:44.989Z,5.83
2019-03-16T07:40:14.607Z,5.50
2019-03-16T07:42:43.390Z,4.12
2019-03-16T07:45:12.919Z,5.95
2019-03-16T07:47:41.756Z,6.15
2019-03-16T07:50:16.997Z,3.87
2019-03-16T07:52:46.046Z,6.65
2019-03-16T07:55:14.861Z,7.28
2019-03-16T07:57:43.673Z,5.67
2019-03-16T08:00:12.905Z,6.45
2019-03-16T08:02:41.680Z,7.22
2019-03-16T08:05:18.292Z,4.12
2019-03-16T08:07:41.035Z,3.65
2019-03-16T08:10:10.849Z,5.92
2019-03-16T08:12:39.743Z,5.72
2019-03-16T08:15:09.722Z,4.65
2019-03-16T08:17:38.554Z,5.80
2019-03-16T08:20:08.994Z,4.85
2019-03-16T08:22:37.834Z,5.58
2019-03-16T08:25:07.823Z,4.78
2019-03-16T08:27:36.618Z,6.00
2019-03-16T08:30:10.412Z,4.62
2019-03-16T08:35:08.456Z,5.75
2019-03-16T08:37:37.230Z,4.03
2019-03-16T08:40:08.618Z,2.42
2019-03-16T08:42:37.695Z,4.60
2019-03-16T08:45:08.760Z,3.33
2019-03-16T08:47:37.848Z,3.27
2019-03-16T08:50:09.176Z,5.10
2019-03-16T08:52:37.937Z,4.90
2019-03-16T08:55:10.275Z,5.90
2019-03-16T08:57:39.121Z,2.35
2019-03-16T09:00:14.629Z,4.35
2019-03-16T09:02:43.401Z,3.72
2019-03-16T09:05:12.234Z,4.58
2019-03-16T09:07:41.010Z,5.45
2019-03-16T09:10:10.385Z,4.40
2019-03-16T09:12:39.239Z,1.95
2019-03-16T09:15:13.409Z,4.20
2019-03-16T09:17:42.174Z,3.40
2019-03-16T09:20:10.964Z,4.35
2019-03-16T09:22:39.744Z,4.50
2019-03-16T09:25:09.822Z,3.67
2019-03-16T09:27:38.623Z,4.12
2019-03-16T09:30:15.531Z,6.08
2019-03-16T09:32:44.648Z,4.53
2019-03-16T09:35:13.409Z,7.00
2019-03-16T09:37:42.194Z,2.92
2019-03-16T09:40:11.531Z,2.72
2019-03-16T09:42:40.295Z,3.25
2019-03-16T09:45:11.111Z,5.50
2019-03-16T09:47:40.034Z,3.58
2019-03-16T09:50:09.949Z,3.17
2019-03-16T09:52:38.990Z,3.22
2019-03-16T09:55:11.622Z,4.58
2019-03-16T09:57:40.389Z,5.25
2019-03-16T10:00:12.813Z,4.58
2019-03-16T10:02:41.590Z,5.50
2019-03-16T10:05:10.422Z,4.58
2019-03-16T10:07:39.593Z,3.42
2019-03-16T10:10:13.298Z,6.42
2019-03-16T10:12:42.136Z,3.70
2019-03-16T10:15:12.408Z,4.78
2019-03-16T10:17:41.287Z,5.67
2019-03-16T10:20:14.160Z,6.28
2019-03-16T10:22:42.930Z,5.47
2019-03-16T10:25:12.084Z,4.53
2019-03-16T10:27:40.903Z,6.87
2019-03-16T10:30:12.936Z,6.22
2019-03-16T10:32:41.726Z,4.05
2019-03-16T10:35:10.555Z,5.50
2019-03-16T10:37:39.349Z,6.80
2019-03-16T10:40:10.641Z,6.50
2019-03-16T10:42:39.427Z,5.65
2019-03-16T10:45:09.934Z,4.83
2019-03-16T10:47:38.733Z,5.10
2019-03-16T10:50:10.164Z,7.33
2019-03-16T10:52:39.013Z,8.90
2019-03-16T10:55:08.654Z,4.95
2019-03-16T10:57:37.514Z,4.80
2019-03-16T11:00:16.827Z,3.70
2019-03-16T11:02:45.591Z,3.35
2019-03-16T11:05:14.376Z,5.53
2019-03-16T11:07:43.234Z,4.33
2019-03-16T11:10:14.399Z,3.42
2019-03-16T11:12:43.169Z,6.08
2019-03-16T11:15:13.500Z,7.58
2019-03-16T11:17:42.281Z,4.80
2019-03-16T11:20:13.400Z,4.80
2019-03-16T11:22:42.190Z,4.53
2019-03-16T11:25:11.026Z,4.58
2019-03-16T11:27:40.167Z,3.45
2019-03-16T11:30:17.319Z,5.95
2019-03-16T11:32:46.098Z,4.92
2019-03-16T11:35:14.937Z,4.12
2019-03-16T11:37:43.726Z,3.55
2019-03-16T11:40:14.839Z,4.03
2019-03-16T11:42:43.673Z,6.90
2019-03-16T11:45:12.626Z,2.02
2019-03-16T11:47:41.458Z,3.33
2019-03-16T11:50:11.377Z,3.22
2019-03-16T11:52:40.181Z,3.42
2019-03-16T11:55:10.071Z,3.70
2019-03-16T11:57:38.903Z,4.17
2019-03-16T12:00:15.165Z,3.17
2019-03-16T12:02:44.322Z,4.10
2019-03-16T12:05:13.091Z,3.72
2019-03-16T12:07:41.885Z,3.67
2019-03-16T12:10:12.290Z,2.67
2019-03-16T12:12:41.051Z,3.65
2019-03-16T12:15:13.968Z,2.52
2019-03-16T12:17:42.799Z,3.35
2019-03-16T12:20:13.306Z,4.78
2019-03-16T12:22:42.121Z,5.25
2019-03-16T12:25:10.886Z,3.27
2019-03-16T12:27:39.666Z,5.58
2019-03-16T12:30:11.275Z,4.15
2019-03-16T12:32:40.112Z,4.35
2019-03-16T12:35:08.945Z,4.95
2019-03-16T12:37:37.801Z,3.22
2019-03-16T12:40:14.015Z,4.20
2019-03-16T12:42:42.887Z,3.52
2019-03-16T12:45:15.681Z,2.95
2019-03-16T12:47:44.453Z,2.58
2019-03-16T12:50:13.317Z,3.12
2019-03-16T12:52:42.174Z,3.90
2019-03-16T12:55:12.055Z,2.90
2019-03-16T12:57:40.858Z,2.35
2019-03-16T13:00:13.206Z,2.02
2019-03-16T13:02:42.038Z,3.17
2019-03-16T13:05:11.308Z,4.10
2019-03-16T13:07:40.512Z,3.67
2019-03-16T13:10:12.479Z,3.60
2019-03-16T13:12:41.375Z,6.75
2019-03-16T13:15:10.195Z,5.33
2019-03-16T13:17:39.035Z,4.20
2019-03-16T13:20:13.312Z,2.90
2019-03-16T13:22:42.092Z,4.45
2019-03-16T13:25:11.779Z,8.53
2019-03-16T13:27:40.721Z,4.22
2019-03-16T13:30:23.018Z,2.62
2019-03-16T13:32:51.808Z,3.83
2019-03-16T13:35:20.578Z,3.95
2019-03-16T13:37:49.647Z,5.33
2019-03-16T13:40:18.656Z,4.60
2019-03-16T13:42:47.431Z,3.27
2019-03-16T13:45:16.277Z,6.90
2019-03-16T13:47:45.132Z,3.22
2019-03-16T13:50:22.967Z,4.33
2019-03-16T13:52:52.128Z,5.50
2019-03-16T13:55:20.910Z,5.92
2019-03-16T13:57:49.760Z,4.42
2019-03-16T14:00:20.272Z,5.15
2019-03-16T14:02:49.125Z,3.50
2019-03-16T14:05:17.908Z,8.13
2019-03-16T14:07:46.794Z,5.30
2019-03-16T14:10:23.919Z,6.08
2019-03-16T14:12:52.746Z,3.72
2019-03-16T14:15:21.531Z,4.35
2019-03-16T14:17:50.376Z,5.42
2019-03-16T14:20:19.745Z,3.75
2019-03-16T14:22:48.572Z,5.87
2019-03-16T14:25:17.410Z,6.30
2019-03-16T14:27:46.303Z,6.10
2019-03-16T14:30:39.104Z,4.85
2019-03-16T14:32:50.105Z,7.50
2019-03-16T14:35:18.945Z,6.83
2019-03-16T14:37:47.782Z,3.77
2019-03-16T14:40:16.924Z,5.37
2019-03-16T14:42:45.778Z,5.97
2019-03-16T14:45:15.955Z,6.30
2019-03-16T14:47:44.842Z,5.30
2019-03-16T14:50:24.884Z,5.65
2019-03-16T14:52:53.692Z,4.30
2019-03-16T14:55:22.512Z,8.70
2019-03-16T14:57:51.286Z,4.30
2019-03-16T15:00:20.375Z,5.12
2019-03-16T15:02:49.214Z,5.62
2019-03-16T15:05:18.038Z,4.72
2019-03-16T15:07:49.555Z,8.18
2019-03-16T15:10:17.888Z,5.95
2019-03-16T15:12:46.731Z,5.03
2019-03-16T15:15:21.030Z,6.00
2019-03-16T15:17:49.861Z,7.08
2019-03-16T15:20:18.651Z,5.70
2019-03-16T15:22:47.515Z,5.85
2019-03-16T15:25:16.330Z,6.78
2019-03-16T15:27:45.088Z,6.28
2019-03-16T15:30:18.534Z,5.83
2019-03-16T15:32:47.325Z,3.83
2019-03-16T15:35:16.171Z,5.55
2019-03-16T15:37:45.315Z,5.65
2019-03-16T15:40:15.443Z,8.00
2019-03-16T15:42:44.284Z,5.92
2019-03-16T15:45:29.710Z,5.03
2019-03-16T15:47:58.478Z,6.12
2019-03-16T15:50:27.320Z,4.75
2019-03-16T15:52:56.190Z,6.20
2019-03-16T15:55:25.130Z,5.47
2019-03-16T15:58:07.024Z,4.95
2019-03-16T16:00:24.414Z,5.05
2019-03-16T16:02:53.244Z,4.87
2019-03-16T16:05:22.007Z,4.90
2019-03-16T16:07:50.830Z,6.75
2019-03-16T16:10:19.849Z,5.72
2019-03-16T16:12:48.641Z,5.85
2019-03-16T16:15:17.436Z,5.97
2019-03-16T16:17:46.316Z,4.92
2019-03-16T16:20:16.449Z,11.00
2019-03-16T16:22:45.546Z,5.37
2019-03-16T16:25:14.794Z,7.33
2019-03-16T16:27:44.502Z,7.10
2019-03-16T16:30:15.057Z,6.80
2019-03-16T16:32:43.894Z,7.60
2019-03-16T16:35:14.185Z,6.20
2019-03-16T16:37:42.965Z,9.30
2019-03-16T16:40:19.061Z,8.68
2019-03-16T16:42:48.176Z,6.50
2019-03-16T16:45:17.769Z,11.08
2019-03-16T16:47:46.553Z,20.57
2019-03-16T16:50:20.392Z,8.30
2019-03-16T16:55:17.154Z,8.40
2019-03-16T16:57:46.331Z,7.00
2019-03-16T17:00:17.364Z,8.73
2019-03-16T17:02:46.211Z,6.65
2019-03-16T17:05:15.077Z,7.65
2019-03-16T17:07:43.832Z,9.23
2019-03-16T17:10:14.648Z,7.80
2019-03-16T17:12:43.918Z,9.08
2019-03-16T17:15:15.976Z,8.30
2019-03-16T17:17:44.740Z,6.85
2019-03-16T17:20:14.375Z,8.20
2019-03-16T17:22:43.236Z,11.80
2019-03-16T17:25:13.453Z,9.10
2019-03-16T17:27:42.252Z,8.48
2019-03-16T17:30:28.253Z,7.45
2019-03-16T17:32:57.120Z,6.95
2019-03-16T17:35:25.884Z,8.33
2019-03-16T17:37:54.722Z,9.55
2019-03-16T17:40:23.510Z,7.65
2019-03-16T17:42:52.272Z,8.90
2019-03-16T17:45:21.030Z,7.25
2019-03-16T17:47:49.915Z,9.88
2019-03-16T17:50:18.748Z,11.78
2019-03-16T17:52:47.528Z,10.20
2019-03-16T17:55:17.696Z,9.10
2019-03-16T17:57:46.880Z,10.40
2019-03-16T18:00:19.339Z,10.82
2019-03-16T18:02:52.511Z,7.87
2019-03-16T18:05:18.642Z,8.53
2019-03-16T18:07:47.765Z,11.18
2019-03-16T18:10:16.574Z,10.95
2019-03-16T18:12:45.744Z,8.05
2019-03-16T18:15:18.766Z,9.13
2019-03-16T18:17:47.585Z,10.50
2019-03-16T18:20:18.203Z,10.23
2019-03-16T18:22:47.694Z,10.05
2019-03-16T18:25:17.017Z,11.73
2019-03-16T18:27:45.852Z,11.38
2019-03-16T18:30:18.923Z,11.48
2019-03-16T18:32:47.731Z,12.15
2019-03-16T18:35:16.490Z,15.58
2019-03-16T18:37:45.274Z,14.18
2019-03-16T18:40:15.474Z,11.43
2019-03-16T18:42:44.276Z,10.38
2019-03-16T18:45:31.058Z,12.80
2019-03-16T18:48:00.253Z,15.03
2019-03-16T18:50:30.674Z,14.05
2019-03-16T18:52:59.931Z,16.27
2019-03-16T18:55:28.800Z,13.40
2019-03-16T18:57:57.648Z,14.58
2019-03-16T19:00:26.543Z,11.63
2019-03-16T19:02:55.858Z,12.43
2019-03-16T19:05:24.645Z,14.20
2019-03-16T19:07:53.487Z,10.68
2019-03-16T19:10:22.338Z,12.35
2019-03-16T19:12:51.107Z,13.38
2019-03-16T19:15:19.908Z,9.73
2019-03-16T19:17:58.486Z,16.07
2019-03-16T19:20:19.146Z,9.48
2019-03-16T19:22:48.046Z,9.65
2019-03-16T19:25:21.387Z,13.18
2019-03-16T19:27:50.183Z,10.65
2019-03-16T19:30:19.119Z,9.40
2019-03-16T19:32:47.978Z,12.65
2019-03-16T19:35:17.207Z,14.35
2019-03-16T19:37:46.081Z,10.32
2019-03-16T19:40:16.684Z,13.68
2019-03-16T19:42:46.964Z,11.53
2019-03-16T19:45:18.942Z,12.20
2019-03-16T19:47:47.784Z,9.60
2019-03-16T19:50:17.210Z,12.20
2019-03-16T19:52:46.017Z,14.03
2019-03-16T19:55:15.056Z,11.08
2019-03-16T19:57:43.871Z,15.25
2019-03-16T20:00:14.990Z,12.47
2019-03-16T20:02:50.320Z,13.75
2019-03-16T20:05:14.677Z,12.53
2019-03-16T20:07:43.483Z,12.53
2019-03-16T20:10:20.346Z,13.20
2019-03-16T20:12:49.279Z,13.58
2019-03-16T20:15:18.150Z,12.70
2019-03-16T20:17:47.012Z,11.43
2019-03-16T20:20:17.244Z,9.43
2019-03-16T20:22:46.106Z,12.28
2019-03-16T20:25:14.971Z,12.58
2019-03-16T20:27:43.857Z,14.18
2019-03-16T20:30:14.722Z,11.90
2019-03-16T20:32:43.500Z,10.03
2019-03-16T20:35:12.395Z,12.20
2019-03-16T20:37:41.236Z,10.60
2019-03-16T20:40:13.978Z,10.05
2019-03-16T20:42:42.793Z,10.15
2019-03-16T20:45:11.737Z,12.10
2019-03-16T20:47:40.580Z,11.03
2019-03-16T20:50:11.818Z,11.93
2019-03-16T20:52:40.615Z,12.95
2019-03-16T20:55:10.025Z,12.43
2019-03-16T20:57:39.205Z,11.90
2019-03-16T21:00:13.299Z,10.08
2019-03-16T21:02:42.100Z,14.35
2019-03-16T21:05:11.363Z,10.98
2019-03-16T21:07:40.207Z,12.70
2019-03-16T21:10:10.917Z,11.50
2019-03-16T21:12:40.031Z,11.45
2019-03-16T21:15:17.412Z,12.23
2019-03-16T21:17:46.197Z,10.98
2019-03-16T21:20:16.322Z,11.10
2019-03-16T21:22:45.187Z,13.53
2019-03-16T21:25:15.107Z,10.23
2019-03-16T21:27:44.242Z,14.45
2019-03-16T21:30:21.580Z,12.03
2019-03-16T21:32:50.336Z,13.20
2019-03-16T21:35:19.119Z,10.32
2019-03-16T21:37:48.011Z,10.48
2019-03-16T21:40:18.031Z,12.63
2019-03-16T21:42:46.801Z,12.28
2019-03-16T21:45:17.139Z,13.38
2019-03-16T21:47:45.994Z,15.32
2019-03-16T21:50:16.207Z,8.68
2019-03-16T21:52:45.224Z,11.53
2019-03-16T21:55:14.812Z,12.45
2019-03-16T21:57:43.673Z,9.80
2019-03-16T22:00:14.388Z,13.13
2019-03-16T22:02:43.283Z,13.55
2019-03-16T22:05:12.567Z,11.12
2019-03-16T22:07:41.445Z,10.53
2019-03-16T22:10:14.292Z,12.13
2019-03-16T22:12:43.137Z,9.87
2019-03-16T22:15:14.390Z,10.82
2019-03-16T22:17:43.177Z,10.90
2019-03-16T22:20:19.499Z,8.88
2019-03-16T22:22:48.275Z,8.45
2019-03-16T22:25:17.429Z,9.90
2019-03-16T22:27:46.245Z,8.30
2019-03-16T22:30:16.428Z,12.75
2019-03-16T22:32:45.204Z,7.37
2019-03-16T22:35:13.986Z,9.08
2019-03-16T22:37:42.741Z,7.92
2019-03-16T22:40:14.300Z,6.75
2019-03-16T22:42:43.156Z,7.28
2019-03-16T22:45:13.166Z,7.42
2019-03-16T22:47:41.955Z,11.12
2019-03-16T22:50:17.854Z,7.67
2019-03-16T22:52:46.635Z,6.62
2019-03-16T22:55:16.150Z,5.97
2019-03-16T22:57:45.593Z,7.37
2019-03-16T23:00:21.385Z,7.58
2019-03-16T23:02:50.587Z,9.53
2019-03-16T23:05:19.371Z,6.90
2019-03-16T23:07:48.467Z,8.58
2019-03-16T23:10:17.275Z,8.73
2019-03-16T23:12:46.035Z,6.58
2019-03-16T23:15:14.804Z,9.20
2019-03-16T23:17:43.590Z,7.50
2019-03-16T23:20:12.344Z,6.65
2019-03-16T23:22:41.111Z,8.83
2019-03-16T23:25:11.534Z,4.70
2019-03-16T23:27:40.389Z,8.85
2019-03-16T23:30:10.681Z,5.00
2019-03-16T23:32:39.544Z,7.85
2019-03-16T23:35:08.745Z,6.10
2019-03-16T23:37:37.523Z,6.92
2019-03-16T23:40:08.628Z,8.68
2019-03-16T23:42:37.466Z,9.33
2019-03-16T23:45:13.252Z,7.72
2019-03-16T23:47:42.152Z,6.70
2019-03-16T23:50:12.180Z,6.97
2019-03-16T23:52:41.004Z,9.40
2019-03-16T23:55:09.966Z,9.85
2019-03-16T23:57:38.733Z,8.33
